Terminal Aerodrome Forecast
Issued by NWS

Home | Current Version | Previous Version | Text Only | Print | Product List | Glossary On
Versions: 1 2 3 4 5 6 7 8 9 10 11 12 13 14 15 16 17 18 19 20 21 22 23 24 25 26 27 28 29 30 31 32 33 34
000
FTUS43 KBIS 110755 AAD
TAFJMS
TAF AMD
KJMS 110755Z 1108/1206 29014G24KT P6SM SCT050 BKN090 WS020/30045KT
     FM110830 31023G34KT P6SM -RASN BKN020
     FM111000 31025G37KT 5SM -SN OVC020
      TEMPO 1110/1113 32030G43KT
     FM111400 33023G32KT P6SM VCSH OVC015
     FM112200 34017KT P6SM SCT030=

USA.gov is the U.S. government's official web portal to all federal, state and local government web resources and services.